sensor_id;sensor_type;location;lat;lon;timestamp;pressure;altitude;pressure_sealevel;temperature
65569;BMP180;52211;50.154;8.682;2023-02-04T00:00:26;101339.00;;;13.60
65569;BMP180;52211;50.154;8.682;2023-02-04T00:03:01;101351.00;;;13.60
65569;BMP180;52211;50.154;8.682;2023-02-04T00:05:28;101366.00;;;13.60
65569;BMP180;52211;50.154;8.682;2023-02-04T00:07:55;101359.00;;;13.50
65569;BMP180;52211;50.154;8.682;2023-02-04T00:10:25;101361.00;;;13.50
65569;BMP180;52211;50.154;8.682;2023-02-04T00:12:55;101364.00;;;13.50
65569;BMP180;52211;50.154;8.682;2023-02-04T00:15:24;101357.00;;;13.50
65569;BMP180;52211;50.154;8.682;2023-02-04T00:17:54;101365.00;;;13.50
65569;BMP180;52211;50.154;8.682;2023-02-04T00:20:24;101378.00;;;13.50
65569;BMP180;52211;50.154;8.682;2023-02-04T00:22:53;101365.00;;;13.50
65569;BMP180;52211;50.154;8.682;2023-02-04T00:25:22;101365.00;;;13.50
65569;BMP180;52211;50.154;8.682;2023-02-04T00:27:51;101361.00;;;13.50
65569;BMP180;52211;50.154;8.682;2023-02-04T00:30:20;101373.00;;;13.40
65569;BMP180;52211;50.154;8.682;2023-02-04T00:32:50;101374.00;;;13.40
65569;BMP180;52211;50.154;8.682;2023-02-04T00:35:21;101375.00;;;13.40
65569;BMP180;52211;50.154;8.682;2023-02-04T08:11:59;101806.00;;;8.80
65569;BMP180;52211;50.154;8.682;2023-02-04T08:14:26;101805.00;;;9.50
65569;BMP180;52211;50.154;8.682;2023-02-04T08:16:55;101807.00;;;10.00
65569;BMP180;52211;50.154;8.682;2023-02-04T08:19:24;101815.00;;;10.40
65569;BMP180;52211;50.154;8.682;2023-02-04T08:21:54;101815.00;;;10.70
65569;BMP180;52211;50.154;8.682;2023-02-04T08:24:20;101820.00;;;11.00
65569;BMP180;52211;50.154;8.682;2023-02-04T08:26:48;101823.00;;;11.20
65569;BMP180;52211;50.154;8.682;2023-02-04T08:29:19;101831.00;;;11.40
65569;BMP180;52211;50.154;8.682;2023-02-04T08:31:51;101825.00;;;11.50
65569;BMP180;52211;50.154;8.682;2023-02-04T08:34:23;101832.00;;;11.70
65569;BMP180;52211;50.154;8.682;2023-02-04T08:37:02;101827.00;;;11.80
65569;BMP180;52211;50.154;8.682;2023-02-04T08:39:31;101838.00;;;12.00
65569;BMP180;52211;50.154;8.682;2023-02-04T08:42:05;101849.00;;;12.10
65569;BMP180;52211;50.154;8.682;2023-02-04T08:44:36;101850.00;;;12.20
65569;BMP180;52211;50.154;8.682;2023-02-04T08:47:03;101847.00;;;12.30
65569;BMP180;52211;50.154;8.682;2023-02-04T08:49:32;101852.00;;;12.40
65569;BMP180;52211;50.154;8.682;2023-02-04T08:52:11;101850.00;;;12.50
65569;BMP180;52211;50.154;8.682;2023-02-04T08:54:45;101852.00;;;12.60
65569;BMP180;52211;50.154;8.682;2023-02-04T08:57:12;101861.00;;;12.60
65569;BMP180;52211;50.154;8.682;2023-02-04T08:59:38;101864.00;;;12.70
65569;BMP180;52211;50.154;8.682;2023-02-04T09:02:05;101869.00;;;12.80
65569;BMP180;52211;50.154;8.682;2023-02-04T09:04:35;101864.00;;;12.90
65569;BMP180;52211;50.154;8.682;2023-02-04T09:07:09;101863.00;;;13.00
65569;BMP180;52211;50.154;8.682;2023-02-04T09:09:48;101860.00;;;13.00
65569;BMP180;52211;50.154;8.682;2023-02-04T09:12:17;101879.00;;;13.10
65569;BMP180;52211;50.154;8.682;2023-02-04T09:14:46;101871.00;;;13.20
65569;BMP180;52211;50.154;8.682;2023-02-04T09:17:13;101874.00;;;13.30
65569;BMP180;52211;50.154;8.682;2023-02-04T09:19:42;101880.00;;;13.40
65569;BMP180;52211;50.154;8.682;2023-02-04T09:22:12;101883.00;;;13.40
65569;BMP180;52211;50.154;8.682;2023-02-04T09:24:41;101887.00;;;13.40
65569;BMP180;52211;50.154;8.682;2023-02-04T09:27:08;101879.00;;;13.50
65569;BMP180;52211;50.154;8.682;2023-02-04T09:29:35;101889.00;;;13.50
65569;BMP180;52211;50.154;8.682;2023-02-04T09:32:02;101896.00;;;13.60
65569;BMP180;52211;50.154;8.682;2023-02-04T09:34:34;101888.00;;;13.60
65569;BMP180;52211;50.154;8.682;2023-02-04T09:37:03;101889.00;;;13.60
65569;BMP180;52211;50.154;8.682;2023-02-04T09:39:34;101896.00;;;13.70
65569;BMP180;52211;50.154;8.682;2023-02-04T09:42:04;101899.00;;;13.70
65569;BMP180;52211;50.154;8.682;2023-02-04T09:44:36;101911.00;;;13.80
65569;BMP180;52211;50.154;8.682;2023-02-04T09:47:05;101901.00;;;13.80
65569;BMP180;52211;50.154;8.682;2023-02-04T09:49:32;101913.00;;;13.90
65569;BMP180;52211;50.154;8.682;2023-02-04T09:52:02;101918.00;;;13.90
65569;BMP180;52211;50.154;8.682;2023-02-04T09:54:29;101920.00;;;13.90
65569;BMP180;52211;50.154;8.682;2023-02-04T09:56:58;101924.00;;;14.00
65569;BMP180;52211;50.154;8.682;2023-02-04T09:59:32;101932.00;;;14.00
65569;BMP180;52211;50.154;8.682;2023-02-04T10:02:18;101937.00;;;14.10
65569;BMP180;52211;50.154;8.682;2023-02-04T10:04:50;101950.00;;;14.10
65569;BMP180;52211;50.154;8.682;2023-02-04T10:07:20;101958.00;;;14.10
65569;BMP180;52211;50.154;8.682;2023-02-04T10:09:52;101958.00;;;14.10
65569;BMP180;52211;50.154;8.682;2023-02-04T10:12:22;101968.00;;;14.20
65569;BMP180;52211;50.154;8.682;2023-02-04T10:14:53;101966.00;;;14.20
65569;BMP180;52211;50.154;8.682;2023-02-04T10:17:22;101971.00;;;14.20
65569;BMP180;52211;50.154;8.682;2023-02-04T10:19:52;101962.00;;;14.20
65569;BMP180;52211;50.154;8.682;2023-02-04T10:22:20;101968.00;;;14.30
65569;BMP180;52211;50.154;8.682;2023-02-04T10:24:53;101956.00;;;14.30
65569;BMP180;52211;50.154;8.682;2023-02-04T10:27:28;101961.00;;;14.40
65569;BMP180;52211;50.154;8.682;2023-02-04T10:29:58;101954.00;;;14.40
65569;BMP180;52211;50.154;8.682;2023-02-04T10:32:32;101960.00;;;14.40
65569;BMP180;52211;50.154;8.682;2023-02-04T10:35:02;101953.00;;;14.50
65569;BMP180;52211;50.154;8.682;2023-02-04T10:37:34;101968.00;;;14.50
65569;BMP180;52211;50.154;8.682;2023-02-04T10:40:04;101972.00;;;14.60
65569;BMP180;52211;50.154;8.682;2023-02-04T10:42:34;101964.00;;;14.60
65569;BMP180;52211;50.154;8.682;2023-02-04T10:45:00;101958.00;;;14.70
65569;BMP180;52211;50.154;8.682;2023-02-04T10:47:30;101969.00;;;14.70
65569;BMP180;52211;50.154;8.682;2023-02-04T10:50:16;101971.00;;;14.70
65569;BMP180;52211;50.154;8.682;2023-02-04T10:52:51;101954.00;;;14.70
65569;BMP180;52211;50.154;8.682;2023-02-04T10:55:25;101963.00;;;14.80
65569;BMP180;52211;50.154;8.682;2023-02-04T10:57:55;101962.00;;;14.80
65569;BMP180;52211;50.154;8.682;2023-02-04T11:00:29;101966.00;;;14.90
65569;BMP180;52211;50.154;8.682;2023-02-04T11:03:21;101956.00;;;14.90
65569;BMP180;52211;50.154;8.682;2023-02-04T11:05:49;101971.00;;;14.90
65569;BMP180;52211;50.154;8.682;2023-02-04T11:08:32;101961.00;;;14.90
65569;BMP180;52211;50.154;8.682;2023-02-04T11:11:15;101958.00;;;15.00
65569;BMP180;52211;50.154;8.682;2023-02-04T11:19:00;101967.00;;;15.10
65569;BMP180;52211;50.154;8.682;2023-02-04T11:24:24;101970.00;;;15.20
65569;BMP180;52211;50.154;8.682;2023-02-04T11:27:25;101960.00;;;15.20
65569;BMP180;52211;50.154;8.682;2023-02-04T11:30:21;101956.00;;;15.30
65569;BMP180;52211;50.154;8.682;2023-02-04T11:33:18;101953.00;;;15.20
65569;BMP180;52211;50.154;8.682;2023-02-04T11:36:05;101962.00;;;15.30
65569;BMP180;52211;50.154;8.682;2023-02-04T11:38:32;101968.00;;;15.30
65569;BMP180;52211;50.154;8.682;2023-02-04T11:41:05;101975.00;;;15.40
65569;BMP180;52211;50.154;8.682;2023-02-04T11:43:36;101970.00;;;15.40
65569;BMP180;52211;50.154;8.682;2023-02-04T11:46:25;101968.00;;;15.50
65569;BMP180;52211;50.154;8.682;2023-02-04T11:48:57;101964.00;;;15.50
65569;BMP180;52211;50.154;8.682;2023-02-04T11:51:33;101968.00;;;15.60
65569;BMP180;52211;50.154;8.682;2023-02-04T11:54:11;101972.00;;;15.60
65569;BMP180;52211;50.154;8.682;2023-02-04T11:56:58;101979.00;;;15.70
65569;BMP180;52211;50.154;8.682;2023-02-04T11:59:25;101971.00;;;15.70
65569;BMP180;52211;50.154;8.682;2023-02-04T12:02:15;101970.00;;;15.70
65569;BMP180;52211;50.154;8.682;2023-02-04T12:04:54;101977.00;;;15.70
65569;BMP180;52211;50.154;8.682;2023-02-04T12:07:29;101978.00;;;15.70
65569;BMP180;52211;50.154;8.682;2023-02-04T12:12:50;101988.00;;;15.70
65569;BMP180;52211;50.154;8.682;2023-02-04T12:15:34;101982.00;;;15.80
65569;BMP180;52211;50.154;8.682;2023-02-04T12:18:06;101974.00;;;15.80
65569;BMP180;52211;50.154;8.682;2023-02-04T12:20:38;101972.00;;;15.90
65569;BMP180;52211;50.154;8.682;2023-02-04T12:23:07;101977.00;;;16.00
65569;BMP180;52211;50.154;8.682;2023-02-04T12:25:37;101979.00;;;16.20
65569;BMP180;52211;50.154;8.682;2023-02-04T12:28:04;101974.00;;;16.60
65569;BMP180;52211;50.154;8.682;2023-02-04T12:30:34;101980.00;;;17.00
65569;BMP180;52211;50.154;8.682;2023-02-04T12:33:03;101983.00;;;17.60
65569;BMP180;52211;50.154;8.682;2023-02-04T12:35:36;101977.00;;;18.00
65569;BMP180;52211;50.154;8.682;2023-02-04T12:38:10;101982.00;;;18.40
65569;BMP180;52211;50.154;8.682;2023-02-04T12:40:40;101985.00;;;18.70
65569;BMP180;52211;50.154;8.682;2023-02-04T12:43:11;101979.00;;;19.00
65569;BMP180;52211;50.154;8.682;2023-02-04T12:45:41;101983.00;;;19.10
65569;BMP180;52211;50.154;8.682;2023-02-04T12:48:14;101990.00;;;19.20
65569;BMP180;52211;50.154;8.682;2023-02-04T12:50:41;101987.00;;;19.00
65569;BMP180;52211;50.154;8.682;2023-02-04T12:53:10;101977.00;;;18.90
65569;BMP180;52211;50.154;8.682;2023-02-04T12:55:39;101985.00;;;18.80
65569;BMP180;52211;50.154;8.682;2023-02-04T12:58:09;101992.00;;;18.80
65569;BMP180;52211;50.154;8.682;2023-02-04T13:00:43;101994.00;;;18.70
65569;BMP180;52211;50.154;8.682;2023-02-04T13:03:18;101993.00;;;18.70
65569;BMP180;52211;50.154;8.682;2023-02-04T13:05:49;101993.00;;;18.70
65569;BMP180;52211;50.154;8.682;2023-02-04T13:08:16;101988.00;;;18.70
65569;BMP180;52211;50.154;8.682;2023-02-04T13:10:50;101988.00;;;18.70
65569;BMP180;52211;50.154;8.682;2023-02-04T13:13:24;101991.00;;;18.70
65569;BMP180;52211;50.154;8.682;2023-02-04T13:16:01;101983.00;;;18.80
65569;BMP180;52211;50.154;8.682;2023-02-04T13:18:32;101980.00;;;18.80
65569;BMP180;52211;50.154;8.682;2023-02-04T13:21:06;101988.00;;;18.80
65569;BMP180;52211;50.154;8.682;2023-02-04T13:23:36;101982.00;;;18.90
65569;BMP180;52211;50.154;8.682;2023-02-04T13:26:05;101983.00;;;19.20
65569;BMP180;52211;50.154;8.682;2023-02-04T13:28:35;101980.00;;;19.50
65569;BMP180;52211;50.154;8.682;2023-02-04T13:31:09;101972.00;;;19.80
65569;BMP180;52211;50.154;8.682;2023-02-04T13:33:36;101982.00;;;20.10
65569;BMP180;52211;50.154;8.682;2023-02-04T13:36:05;101978.00;;;20.50
65569;BMP180;52211;50.154;8.682;2023-02-04T13:38:37;101976.00;;;20.90
65569;BMP180;52211;50.154;8.682;2023-02-04T13:41:06;101976.00;;;21.20
65569;BMP180;52211;50.154;8.682;2023-02-04T13:43:38;101970.00;;;21.60
65569;BMP180;52211;50.154;8.682;2023-02-04T13:46:12;101961.00;;;21.80
65569;BMP180;52211;50.154;8.682;2023-02-04T13:48:42;101972.00;;;22.00
65569;BMP180;52211;50.154;8.682;2023-02-04T13:51:09;101961.00;;;22.00
65569;BMP180;52211;50.154;8.682;2023-02-04T13:53:36;101962.00;;;21.90
65569;BMP180;52211;50.154;8.682;2023-02-04T13:56:06;101969.00;;;21.70
65569;BMP180;52211;50.154;8.682;2023-02-04T13:58:35;101963.00;;;21.40
65569;BMP180;52211;50.154;8.682;2023-02-04T14:01:05;101970.00;;;21.30
65569;BMP180;52211;50.154;8.682;2023-02-04T14:03:34;101966.00;;;21.00
65569;BMP180;52211;50.154;8.682;2023-02-04T14:06:08;101971.00;;;20.70
65569;BMP180;52211;50.154;8.682;2023-02-04T14:08:35;101977.00;;;20.50
65569;BMP180;52211;50.154;8.682;2023-02-04T14:11:09;101981.00;;;20.40
65569;BMP180;52211;50.154;8.682;2023-02-04T14:13:38;101980.00;;;20.20
65569;BMP180;52211;50.154;8.682;2023-02-04T14:16:07;101976.00;;;20.00
65569;BMP180;52211;50.154;8.682;2023-02-04T14:18:39;101988.00;;;19.80
65569;BMP180;52211;50.154;8.682;2023-02-04T14:21:11;101979.00;;;19.50
65569;BMP180;52211;50.154;8.682;2023-02-04T14:23:41;101983.00;;;19.20
65569;BMP180;52211;50.154;8.682;2023-02-04T14:26:12;101985.00;;;19.00
65569;BMP180;52211;50.154;8.682;2023-02-04T14:28:39;101983.00;;;18.80
65569;BMP180;52211;50.154;8.682;2023-02-04T14:31:09;101990.00;;;18.60
65569;BMP180;52211;50.154;8.682;2023-02-04T14:33:36;101982.00;;;18.60
65569;BMP180;52211;50.154;8.682;2023-02-04T14:36:03;101979.00;;;18.60
65569;BMP180;52211;50.154;8.682;2023-02-04T14:38:33;101981.00;;;18.60
65569;BMP180;52211;50.154;8.682;2023-02-04T14:41:02;101978.00;;;18.60
65569;BMP180;52211;50.154;8.682;2023-02-04T14:43:29;101984.00;;;18.50
65569;BMP180;52211;50.154;8.682;2023-02-04T14:45:56;101978.00;;;18.50
65569;BMP180;52211;50.154;8.682;2023-02-04T14:48:30;101988.00;;;18.40
65569;BMP180;52211;50.154;8.682;2023-02-04T14:50:59;101983.00;;;18.30
65569;BMP180;52211;50.154;8.682;2023-02-04T14:53:30;101979.00;;;18.20
65569;BMP180;52211;50.154;8.682;2023-02-04T14:55:57;101982.00;;;18.00
65569;BMP180;52211;50.154;8.682;2023-02-04T14:58:26;101984.00;;;17.70
65569;BMP180;52211;50.154;8.682;2023-02-04T15:00:54;101988.00;;;17.50
65569;BMP180;52211;50.154;8.682;2023-02-04T15:03:23;101985.00;;;17.30
65569;BMP180;52211;50.154;8.682;2023-02-04T15:05:50;101990.00;;;17.20
65569;BMP180;52211;50.154;8.682;2023-02-04T15:08:19;101997.00;;;17.00
65569;BMP180;52211;50.154;8.682;2023-02-04T15:10:48;101990.00;;;16.80
65569;BMP180;52211;50.154;8.682;2023-02-04T15:13:15;101999.00;;;16.70
65569;BMP180;52211;50.154;8.682;2023-02-04T15:15:47;101989.00;;;16.70
65569;BMP180;52211;50.154;8.682;2023-02-04T15:18:16;101992.00;;;16.60
65569;BMP180;52211;50.154;8.682;2023-02-04T15:20:45;101983.00;;;16.60
65569;BMP180;52211;50.154;8.682;2023-02-04T15:23:15;101984.00;;;16.50
65569;BMP180;52211;50.154;8.682;2023-02-04T15:25:43;101993.00;;;16.40
65569;BMP180;52211;50.154;8.682;2023-02-04T15:28:13;101997.00;;;16.30
65569;BMP180;52211;50.154;8.682;2023-02-04T15:30:40;101990.00;;;16.20
65569;BMP180;52211;50.154;8.682;2023-02-04T15:33:07;102003.00;;;16.20
65569;BMP180;52211;50.154;8.682;2023-02-04T15:35:34;102001.00;;;16.10
65569;BMP180;52211;50.154;8.682;2023-02-04T15:38:03;101994.00;;;16.10
65569;BMP180;52211;50.154;8.682;2023-02-04T15:40:32;102005.00;;;16.00
65569;BMP180;52211;50.154;8.682;2023-02-04T15:43:04;102009.00;;;15.90
65569;BMP180;52211;50.154;8.682;2023-02-04T15:45:30;102000.00;;;15.90
65569;BMP180;52211;50.154;8.682;2023-02-04T15:47:59;102011.00;;;15.80
65569;BMP180;52211;50.154;8.682;2023-02-04T15:50:29;102009.00;;;15.80
65569;BMP180;52211;50.154;8.682;2023-02-04T15:53:02;102014.00;;;15.70
65569;BMP180;52211;50.154;8.682;2023-02-04T15:55:36;102018.00;;;15.60
65569;BMP180;52211;50.154;8.682;2023-02-04T15:58:09;102022.00;;;15.50
65569;BMP180;52211;50.154;8.682;2023-02-04T16:00:39;102023.00;;;15.40
65569;BMP180;52211;50.154;8.682;2023-02-04T16:03:06;102027.00;;;15.20
65569;BMP180;52211;50.154;8.682;2023-02-04T16:05:33;102030.00;;;15.20
65569;BMP180;52211;50.154;8.682;2023-02-04T16:08:07;102037.00;;;15.10
65569;BMP180;52211;50.154;8.682;2023-02-04T16:10:38;102036.00;;;15.00
65569;BMP180;52211;50.154;8.682;2023-02-04T16:13:05;102031.00;;;14.90
65569;BMP180;52211;50.154;8.682;2023-02-04T16:15:41;102039.00;;;14.80
65569;BMP180;52211;50.154;8.682;2023-02-04T16:18:08;102034.00;;;14.70
65569;BMP180;52211;50.154;8.682;2023-02-04T16:20:37;102043.00;;;14.70
65569;BMP180;52211;50.154;8.682;2023-02-04T16:23:04;102036.00;;;14.60
65569;BMP180;52211;50.154;8.682;2023-02-04T16:25:35;102043.00;;;14.50
65569;BMP180;52211;50.154;8.682;2023-02-04T16:28:04;102038.00;;;14.40
65569;BMP180;52211;50.154;8.682;2023-02-04T16:30:33;102046.00;;;14.40
65569;BMP180;52211;50.154;8.682;2023-02-04T16:33:03;102051.00;;;14.30
65569;BMP180;52211;50.154;8.682;2023-02-04T16:36:05;102053.00;;;14.20
65569;BMP180;52211;50.154;8.682;2023-02-04T16:38:38;102058.00;;;14.20
65569;BMP180;52211;50.154;8.682;2023-02-04T16:41:06;102056.00;;;14.20
65569;BMP180;52211;50.154;8.682;2023-02-04T16:43:33;102062.00;;;14.10
65569;BMP180;52211;50.154;8.682;2023-02-04T16:46:02;102051.00;;;14.10
65569;BMP180;52211;50.154;8.682;2023-02-04T16:48:32;102053.00;;;14.00
65569;BMP180;52211;50.154;8.682;2023-02-04T16:50:59;102053.00;;;14.00
65569;BMP180;52211;50.154;8.682;2023-02-04T16:53:25;102056.00;;;13.90
65569;BMP180;52211;50.154;8.682;2023-02-04T16:55:58;102059.00;;;13.90
65569;BMP180;52211;50.154;8.682;2023-02-04T16:58:27;102062.00;;;13.80
65569;BMP180;52211;50.154;8.682;2023-02-04T17:00:55;102066.00;;;13.80
65569;BMP180;52211;50.154;8.682;2023-02-04T17:03:23;102069.00;;;13.70
65569;BMP180;52211;50.154;8.682;2023-02-04T17:05:50;102070.00;;;13.70
65569;BMP180;52211;50.154;8.682;2023-02-04T17:08:19;102063.00;;;13.70
65569;BMP180;52211;50.154;8.682;2023-02-04T17:10:50;102073.00;;;13.60
65569;BMP180;52211;50.154;8.682;2023-02-04T17:13:38;102071.00;;;13.60
65569;BMP180;52211;50.154;8.682;2023-02-04T17:16:07;102070.00;;;13.60
65569;BMP180;52211;50.154;8.682;2023-02-04T17:18:37;102075.00;;;13.60
65569;BMP180;52211;50.154;8.682;2023-02-04T17:21:06;102079.00;;;13.60
65569;BMP180;52211;50.154;8.682;2023-02-04T17:23:35;102078.00;;;13.50
65569;BMP180;52211;50.154;8.682;2023-02-04T17:26:06;102073.00;;;13.50
65569;BMP180;52211;50.154;8.682;2023-02-04T17:28:36;102072.00;;;13.50
65569;BMP180;52211;50.154;8.682;2023-02-04T17:31:03;102076.00;;;13.40
65569;BMP180;52211;50.154;8.682;2023-02-04T17:33:33;102084.00;;;13.40
65569;BMP180;52211;50.154;8.682;2023-02-04T17:36:05;102079.00;;;13.40
65569;BMP180;52211;50.154;8.682;2023-02-04T17:38:35;102082.00;;;13.30
65569;BMP180;52211;50.154;8.682;2023-02-04T17:41:06;102087.00;;;13.30
65569;BMP180;52211;50.154;8.682;2023-02-04T17:43:40;102096.00;;;13.30
65569;BMP180;52211;50.154;8.682;2023-02-04T17:46:07;102089.00;;;13.30
65569;BMP180;52211;50.154;8.682;2023-02-04T17:48:36;102093.00;;;13.30
65569;BMP180;52211;50.154;8.682;2023-02-04T17:51:03;102097.00;;;13.30
65569;BMP180;52211;50.154;8.682;2023-02-04T17:53:35;102095.00;;;13.20
65569;BMP180;52211;50.154;8.682;2023-02-04T17:56:17;102090.00;;;13.20
65569;BMP180;52211;50.154;8.682;2023-02-04T17:58:46;102098.00;;;13.20
65569;BMP180;52211;50.154;8.682;2023-02-04T18:01:18;102110.00;;;13.20
65569;BMP180;52211;50.154;8.682;2023-02-04T18:03:57;102103.00;;;13.10
65569;BMP180;52211;50.154;8.682;2023-02-04T18:06:27;102097.00;;;13.10
65569;BMP180;52211;50.154;8.682;2023-02-04T18:09:00;102102.00;;;13.10
65569;BMP180;52211;50.154;8.682;2023-02-04T18:11:37;102099.00;;;13.10
65569;BMP180;52211;50.154;8.682;2023-02-04T18:14:19;102097.00;;;13.00
65569;BMP180;52211;50.154;8.682;2023-02-04T18:16:57;102102.00;;;13.00
65569;BMP180;52211;50.154;8.682;2023-02-04T18:19:28;102107.00;;;13.00
65569;BMP180;52211;50.154;8.682;2023-02-04T18:22:15;102108.00;;;12.90
65569;BMP180;52211;50.154;8.682;2023-02-04T18:24:46;102108.00;;;12.90
65569;BMP180;52211;50.154;8.682;2023-02-04T18:27:21;102118.00;;;12.80
65569;BMP180;52211;50.154;8.682;2023-02-04T18:29:56;102114.00;;;12.80
65569;BMP180;52211;50.154;8.682;2023-02-04T18:32:39;102113.00;;;12.80
65569;BMP180;52211;50.154;8.682;2023-02-04T18:38:00;102108.00;;;12.70
65569;BMP180;52211;50.154;8.682;2023-02-04T18:40:30;102108.00;;;12.70
65569;BMP180;52211;50.154;8.682;2023-02-04T18:43:27;102107.00;;;12.60
65569;BMP180;52211;50.154;8.682;2023-02-04T18:46:09;102106.00;;;12.60
65569;BMP180;52211;50.154;8.682;2023-02-04T18:49:39;102105.00;;;12.60
65569;BMP180;52211;50.154;8.682;2023-02-04T18:52:19;102111.00;;;12.50
65569;BMP180;52211;50.154;8.682;2023-02-04T18:54:53;102111.00;;;12.50
65569;BMP180;52211;50.154;8.682;2023-02-04T19:05:46;102103.00;;;12.40
65569;BMP180;52211;50.154;8.682;2023-02-04T19:08:46;102108.00;;;12.40
65569;BMP180;52211;50.154;8.682;2023-02-04T19:11:41;102109.00;;;12.40
65569;BMP180;52211;50.154;8.682;2023-02-04T19:17:25;102102.00;;;12.30
65569;BMP180;52211;50.154;8.682;2023-02-04T19:20:23;102103.00;;;12.30
65569;BMP180;52211;50.154;8.682;2023-02-04T19:22:53;102103.00;;;12.30
65569;BMP180;52211;50.154;8.682;2023-02-04T19:25:33;102107.00;;;12.30
65569;BMP180;52211;50.154;8.682;2023-02-04T19:28:34;102109.00;;;12.30
65569;BMP180;52211;50.154;8.682;2023-02-04T19:31:09;102109.00;;;12.40
65569;BMP180;52211;50.154;8.682;2023-02-04T19:33:43;102106.00;;;12.40
65569;BMP180;52211;50.154;8.682;2023-02-04T19:36:35;102106.00;;;12.30
65569;BMP180;52211;50.154;8.682;2023-02-04T19:39:15;102105.00;;;12.40
65569;BMP180;52211;50.154;8.682;2023-02-04T19:41:52;102109.00;;;12.30
65569;BMP180;52211;50.154;8.682;2023-02-04T19:44:44;102109.00;;;12.30
65569;BMP180;52211;50.154;8.682;2023-02-04T19:50:33;102129.00;;;12.30
65569;BMP180;52211;50.154;8.682;2023-02-04T19:53:26;102126.00;;;12.30
65569;BMP180;52211;50.154;8.682;2023-02-04T19:55:54;102121.00;;;12.30
65569;BMP180;52211;50.154;8.682;2023-02-04T19:58:34;102130.00;;;12.30
65569;BMP180;52211;50.154;8.682;2023-02-04T20:01:16;102137.00;;;12.30
65569;BMP180;52211;50.154;8.682;2023-02-04T20:03:50;102136.00;;;12.30
65569;BMP180;52211;50.154;8.682;2023-02-04T20:06:30;102127.00;;;12.20
65569;BMP180;52211;50.154;8.682;2023-02-04T20:14:22;102131.00;;;12.20
65569;BMP180;52211;50.154;8.682;2023-02-04T20:17:00;102131.00;;;12.10
65569;BMP180;52211;50.154;8.682;2023-02-04T20:24:52;102149.00;;;12.10
65569;BMP180;52211;50.154;8.682;2023-02-04T20:27:53;102150.00;;;12.10
65569;BMP180;52211;50.154;8.682;2023-02-04T20:30:31;102154.00;;;12.10
65569;BMP180;52211;50.154;8.682;2023-02-04T20:33:22;102162.00;;;12.10
65569;BMP180;52211;50.154;8.682;2023-02-04T20:38:18;102168.00;;;12.20
65569;BMP180;52211;50.154;8.682;2023-02-04T20:40:46;102156.00;;;12.20
65569;BMP180;52211;50.154;8.682;2023-02-04T20:43:20;102158.00;;;12.20
65569;BMP180;52211;50.154;8.682;2023-02-04T20:48:34;102160.00;;;12.20
65569;BMP180;52211;50.154;8.682;2023-02-04T20:51:20;102160.00;;;12.20
65569;BMP180;52211;50.154;8.682;2023-02-04T20:53:50;102158.00;;;12.20
65569;BMP180;52211;50.154;8.682;2023-02-04T20:56:33;102160.00;;;12.20
65569;BMP180;52211;50.154;8.682;2023-02-04T20:59:35;102162.00;;;12.20
65569;BMP180;52211;50.154;8.682;2023-02-04T21:02:18;102169.00;;;12.10
65569;BMP180;52211;50.154;8.682;2023-02-04T21:04:46;102167.00;;;12.20
65569;BMP180;52211;50.154;8.682;2023-02-04T21:07:21;102162.00;;;12.10
65569;BMP180;52211;50.154;8.682;2023-02-04T21:09:51;102162.00;;;12.10
65569;BMP180;52211;50.154;8.682;2023-02-04T21:12:18;102158.00;;;12.10
65569;BMP180;52211;50.154;8.682;2023-02-04T21:14:50;102157.00;;;12.10
65569;BMP180;52211;50.154;8.682;2023-02-04T21:17:25;102154.00;;;12.10
65569;BMP180;52211;50.154;8.682;2023-02-04T21:19:54;102164.00;;;12.10
65569;BMP180;52211;50.154;8.682;2023-02-04T21:22:21;102152.00;;;12.10
65569;BMP180;52211;50.154;8.682;2023-02-04T21:24:53;102160.00;;;12.10
65569;BMP180;52211;50.154;8.682;2023-02-04T21:27:23;102161.00;;;12.00
65569;BMP180;52211;50.154;8.682;2023-02-04T21:29:58;102170.00;;;12.00
65569;BMP180;52211;50.154;8.682;2023-02-04T21:32:28;102170.00;;;12.00
65569;BMP180;52211;50.154;8.682;2023-02-04T21:34:57;102171.00;;;12.00
65569;BMP180;52211;50.154;8.682;2023-02-04T21:37:27;102174.00;;;12.00
65569;BMP180;52211;50.154;8.682;2023-02-04T21:39:54;102168.00;;;12.00
65569;BMP180;52211;50.154;8.682;2023-02-04T21:42:25;102171.00;;;12.00
65569;BMP180;52211;50.154;8.682;2023-02-04T21:44:55;102172.00;;;12.00
65569;BMP180;52211;50.154;8.682;2023-02-04T21:47:48;102171.00;;;12.00
65569;BMP180;52211;50.154;8.682;2023-02-04T21:50:20;102170.00;;;12.00
65569;BMP180;52211;50.154;8.682;2023-02-04T21:52:52;102164.00;;;11.90
65569;BMP180;52211;50.154;8.682;2023-02-04T21:55:21;102168.00;;;11.90
65569;BMP180;52211;50.154;8.682;2023-02-04T21:57:53;102162.00;;;11.90
65569;BMP180;52211;50.154;8.682;2023-02-04T22:00:23;102166.00;;;11.90
65569;BMP180;52211;50.154;8.682;2023-02-04T22:02:53;102170.00;;;11.90
65569;BMP180;52211;50.154;8.682;2023-02-04T22:05:23;102170.00;;;11.90
65569;BMP180;52211;50.154;8.682;2023-02-04T22:07:53;102174.00;;;11.90
65569;BMP180;52211;50.154;8.682;2023-02-04T22:10:25;102167.00;;;11.90
65569;BMP180;52211;50.154;8.682;2023-02-04T22:12:54;102168.00;;;11.90
65569;BMP180;52211;50.154;8.682;2023-02-04T22:15:26;102156.00;;;11.80
65569;BMP180;52211;50.154;8.682;2023-02-04T22:17:58;102172.00;;;11.80
65569;BMP180;52211;50.154;8.682;2023-02-04T22:20:25;102167.00;;;11.80
65569;BMP180;52211;50.154;8.682;2023-02-04T22:22:56;102163.00;;;11.70
65569;BMP180;52211;50.154;8.682;2023-02-04T22:25:27;102154.00;;;11.70
65569;BMP180;52211;50.154;8.682;2023-02-04T22:27:54;102169.00;;;11.70
65569;BMP180;52211;50.154;8.682;2023-02-04T22:30:23;102152.00;;;11.60
65569;BMP180;52211;50.154;8.682;2023-02-04T22:32:53;102156.00;;;11.60
65569;BMP180;52211;50.154;8.682;2023-02-04T22:35:23;102158.00;;;11.60
65569;BMP180;52211;50.154;8.682;2023-02-04T22:37:55;102149.00;;;11.60
65569;BMP180;52211;50.154;8.682;2023-02-04T22:40:27;102152.00;;;11.60
65569;BMP180;52211;50.154;8.682;2023-02-04T22:42:59;102150.00;;;11.60
65569;BMP180;52211;50.154;8.682;2023-02-04T22:45:31;102151.00;;;11.60